createdAt,value
2017-12-21T00:00:36.590Z,43.43
2017-12-21T00:01:36.569Z,43.80
2017-12-21T00:02:36.510Z,43.80
2017-12-21T00:03:36.469Z,44.09
2017-12-21T00:04:36.436Z,43.90
2017-12-21T00:05:36.401Z,44.00
2017-12-21T00:06:36.355Z,43.62
2017-12-21T00:07:36.326Z,43.83
2017-12-21T00:08:36.280Z,44.28
2017-12-21T00:09:36.251Z,44.40
2017-12-21T00:10:37.005Z,44.95
2017-12-21T00:11:36.182Z,45.42
2017-12-21T00:12:36.135Z,45.33
2017-12-21T00:13:36.095Z,45.14
2017-12-21T00:14:36.065Z,44.85
2017-12-21T00:15:36.020Z,44.19
2017-12-21T00:16:35.992Z,44.09
2017-12-21T00:17:35.943Z,43.90
2017-12-21T00:18:35.913Z,43.62
2017-12-21T00:19:35.869Z,43.43
2017-12-21T00:20:35.840Z,43.33
2017-12-21T00:21:35.826Z,43.33
2017-12-21T00:22:35.771Z,43.07
2017-12-21T00:23:35.718Z,43.07
2017-12-21T00:24:35.682Z,43.33
2017-12-21T00:25:35.649Z,44.12
2017-12-21T00:26:35.660Z,44.02
2017-12-21T00:27:36.024Z,43.93
2017-12-21T00:28:35.531Z,44.02
2017-12-21T00:29:35.495Z,44.40
2017-12-21T00:30:35.461Z,44.31
2017-12-21T00:31:35.425Z,44.68
2017-12-21T00:32:35.382Z,44.97
2017-12-21T00:33:35.350Z,44.57
2017-12-21T00:34:35.322Z,44.85
2017-12-21T00:35:35.271Z,44.28
2017-12-21T00:36:35.235Z,44.02
2017-12-21T00:37:35.204Z,44.12
2017-12-21T00:38:35.188Z,45.07
2017-12-21T00:39:35.137Z,45.26
2017-12-21T00:40:35.083Z,45.45
2017-12-21T00:41:35.050Z,45.64
2017-12-21T00:42:35.019Z,45.54
2017-12-21T00:43:34.980Z,46.40
2017-12-21T00:44:34.935Z,46.30
2017-12-21T00:45:34.903Z,46.40
2017-12-21T00:46:34.866Z,46.30
2017-12-21T00:47:34.825Z,46.01
2017-12-21T00:48:34.824Z,46.01
2017-12-21T00:49:34.751Z,45.92
2017-12-21T00:50:34.714Z,46.11
2017-12-21T00:51:34.675Z,46.40
2017-12-21T00:52:34.677Z,46.20
2017-12-21T00:53:34.614Z,46.11
2017-12-21T00:54:34.566Z,46.11
2017-12-21T00:55:34.533Z,46.68
2017-12-21T00:56:34.530Z,46.49
2017-12-21T00:57:34.453Z,46.78
2017-12-21T00:58:34.415Z,46.78
2017-12-21T00:59:34.379Z,47.06
2017-12-21T01:00:34.351Z,46.78
2017-12-21T01:01:34.306Z,46.97
2017-12-21T01:02:34.276Z,46.30
2017-12-21T01:03:34.245Z,46.40
2017-12-21T01:04:34.193Z,46.59
2017-12-21T01:05:34.159Z,46.97
2017-12-21T01:06:34.123Z,46.59
2017-12-21T01:07:34.088Z,46.68
2017-12-21T01:08:34.043Z,46.68
2017-12-21T01:09:34.012Z,47.06
2017-12-21T01:10:34.015Z,47.06
2017-12-21T01:11:33.942Z,47.06
2017-12-21T01:12:33.903Z,47.06
2017-12-21T01:13:33.862Z,47.16
2017-12-21T01:14:33.861Z,46.68
2017-12-21T01:15:33.795Z,46.59
2017-12-21T01:16:33.749Z,46.88
2017-12-21T01:17:33.719Z,46.88
2017-12-21T01:18:33.700Z,47.25
2017-12-21T01:19:33.679Z,47.06
2017-12-21T01:20:33.601Z,47.44
2017-12-21T01:21:33.570Z,47.54
2017-12-21T01:22:33.532Z,47.54
2017-12-21T01:23:33.492Z,48.21
2017-12-21T01:24:33.466Z,48.58
2017-12-21T01:25:33.417Z,48.39
2017-12-21T01:26:33.382Z,48.49
2017-12-21T01:27:33.367Z,48.87
2017-12-21T01:28:33.336Z,48.87
2017-12-21T01:29:33.272Z,48.96
2017-12-21T01:30:33.232Z,49.06
2017-12-21T01:31:33.232Z,49.25
2017-12-21T01:32:33.166Z,49.25
2017-12-21T01:33:33.123Z,49.35
2017-12-21T01:34:33.110Z,49.06
2017-12-21T01:35:33.051Z,49.06
2017-12-21T01:36:33.011Z,48.96
2017-12-21T01:37:32.977Z,49.25
2017-12-21T01:38:32.961Z,48.87
2017-12-21T01:39:32.898Z,48.58
2017-12-21T01:40:32.866Z,48.30
2017-12-21T01:41:32.826Z,48.30
2017-12-21T01:42:32.789Z,48.01
2017-12-21T01:43:32.751Z,47.73
2017-12-21T01:44:32.738Z,47.25
2017-12-21T01:45:32.695Z,47.44
2017-12-21T01:46:32.642Z,47.54
2017-12-21T01:47:32.611Z,47.73
2017-12-21T01:48:32.568Z,47.54
2017-12-21T01:49:32.540Z,46.97
2017-12-21T01:50:32.499Z,47.44
2017-12-21T01:51:32.458Z,48.11
2017-12-21T01:52:32.423Z,48.49
2017-12-21T01:53:32.393Z,48.58
2017-12-21T01:54:32.345Z,48.49
2017-12-21T01:55:32.312Z,48.21
2017-12-21T01:56:32.297Z,48.39
2017-12-21T01:57:32.236Z,47.92
2017-12-21T01:58:32.198Z,47.82
2017-12-21T01:59:32.169Z,47.63
2017-12-21T02:00:32.127Z,47.54
2017-12-21T02:01:32.118Z,47.25
2017-12-21T02:02:32.071Z,47.25
2017-12-21T02:03:32.117Z,47.16
2017-12-21T02:04:31.979Z,47.06
2017-12-21T02:05:32.126Z,47.25
2017-12-21T02:06:32.118Z,47.25
2017-12-21T02:07:31.878Z,47.63
2017-12-21T02:08:31.834Z,47.25
2017-12-21T02:09:31.790Z,47.54
2017-12-21T02:10:31.754Z,46.97
2017-12-21T02:11:31.718Z,47.06
2017-12-21T02:12:31.683Z,47.34
2017-12-21T02:13:31.644Z,47.06
2017-12-21T02:14:31.606Z,46.97
2017-12-21T02:15:31.572Z,47.06
2017-12-21T02:16:31.542Z,46.30
2017-12-21T02:17:31.495Z,46.01
2017-12-21T02:18:31.477Z,46.40
2017-12-21T02:19:31.420Z,46.20
2017-12-21T02:20:31.408Z,45.92
2017-12-21T02:21:31.351Z,45.54
2017-12-21T02:22:31.309Z,45.35
2017-12-21T02:23:31.274Z,45.07
2017-12-21T02:24:31.238Z,44.97
2017-12-21T02:25:31.200Z,44.09
2017-12-21T02:26:31.229Z,43.43
2017-12-21T02:27:31.132Z,42.95
2017-12-21T02:28:31.088Z,42.95
2017-12-21T02:29:31.073Z,42.79
2017-12-21T02:30:31.022Z,42.69
2017-12-21T02:31:30.977Z,42.50
2017-12-21T02:32:30.941Z,42.57
2017-12-21T02:33:30.903Z,42.31
2017-12-21T02:34:30.865Z,42.47
2017-12-21T02:35:30.873Z,42.29
2017-12-21T02:36:30.790Z,42.50
2017-12-21T02:37:30.750Z,42.40
2017-12-21T02:38:30.716Z,42.02
2017-12-21T02:39:30.689Z,42.40
2017-12-21T02:40:30.654Z,42.00
2017-12-21T02:41:30.609Z,41.83
2017-12-21T02:42:30.570Z,41.91
2017-12-21T02:43:30.555Z,41.83
2017-12-21T02:44:30.492Z,41.83
2017-12-21T02:45:30.496Z,41.64
2017-12-21T02:46:30.420Z,41.83
2017-12-21T02:47:30.411Z,41.46
2017-12-21T02:48:30.346Z,41.53
2017-12-21T02:49:30.319Z,41.26
2017-12-21T02:50:30.284Z,41.07
2017-12-21T02:51:30.235Z,41.07
2017-12-21T02:52:30.276Z,41.07
2017-12-21T02:53:30.173Z,41.07
2017-12-21T02:54:30.155Z,41.07
2017-12-21T02:55:30.086Z,40.79
2017-12-21T02:56:30.049Z,40.95
2017-12-21T02:57:30.012Z,40.79
2017-12-21T02:58:29.974Z,40.39
2017-12-21T02:59:29.949Z,40.48
2017-12-21T03:00:29.898Z,40.20
2017-12-21T03:01:29.858Z,40.10
2017-12-21T03:02:29.835Z,39.91
2017-12-21T03:03:29.799Z,39.91
2017-12-21T03:04:29.747Z,39.72
2017-12-21T03:05:29.728Z,39.81
2017-12-21T03:06:29.682Z,39.62
2017-12-21T03:07:29.658Z,39.81
2017-12-21T03:08:29.611Z,39.81
2017-12-21T03:09:29.561Z,39.34
2017-12-21T03:10:29.533Z,39.81
2017-12-21T03:11:29.501Z,39.72
2017-12-21T03:12:29.450Z,39.62
2017-12-21T03:13:29.414Z,39.43
2017-12-21T03:14:29.373Z,39.43
2017-12-21T03:15:29.344Z,39.34
2017-12-21T03:16:29.310Z,39.43
2017-12-21T03:17:29.260Z,39.53
2017-12-21T03:18:29.221Z,39.62
2017-12-21T03:19:29.185Z,39.15
2017-12-21T03:20:29.145Z,39.43
2017-12-21T03:21:29.111Z,39.15
2017-12-21T03:22:29.083Z,39.43
2017-12-21T03:23:29.057Z,39.25
2017-12-21T03:24:29.032Z,39.06
2017-12-21T03:25:28.981Z,39.15
2017-12-21T03:26:28.924Z,39.25
2017-12-21T03:27:28.893Z,39.43
2017-12-21T03:28:28.852Z,39.43
2017-12-21T03:29:28.808Z,39.25
2017-12-21T03:30:28.771Z,39.06
2017-12-21T03:31:28.771Z,38.68
2017-12-21T03:32:28.714Z,38.77
2017-12-21T03:33:28.656Z,38.68
2017-12-21T03:34:28.620Z,38.87
2017-12-21T03:35:28.604Z,38.87
2017-12-21T03:36:28.545Z,39.15
2017-12-21T03:37:28.507Z,39.06
2017-12-21T03:38:28.470Z,39.06
2017-12-21T03:39:28.469Z,38.68
2017-12-21T03:40:28.405Z,38.87
2017-12-21T03:41:28.359Z,38.68
2017-12-21T03:42:28.319Z,38.87
2017-12-21T03:43:28.281Z,38.68
2017-12-21T03:44:28.242Z,38.68
2017-12-21T03:45:28.206Z,38.96
2017-12-21T03:46:28.173Z,38.96
2017-12-21T03:47:28.138Z,39.06
2017-12-21T03:48:28.092Z,39.25
2017-12-21T03:49:28.056Z,39.15
2017-12-21T03:50:28.018Z,38.77
2017-12-21T03:51:27.980Z,38.87
2017-12-21T03:52:27.951Z,38.68
2017-12-21T03:53:27.907Z,38.58
2017-12-21T03:54:27.867Z,38.48
2017-12-21T03:55:27.837Z,38.48
2017-12-21T03:56:27.791Z,38.58
2017-12-21T03:57:27.757Z,38.77
2017-12-21T03:58:27.719Z,38.87
2017-12-21T03:59:27.687Z,38.96
2017-12-21T04:00:27.642Z,38.96
2017-12-21T04:01:27.604Z,38.68
2017-12-21T04:02:27.574Z,38.68
2017-12-21T04:03:27.531Z,38.48
2017-12-21T04:04:27.493Z,39.06
2017-12-21T04:05:27.479Z,38.77
2017-12-21T04:06:27.420Z,39.15
2017-12-21T04:07:27.381Z,39.62
2017-12-21T04:08:27.352Z,39.81
2017-12-21T04:09:27.306Z,39.81
2017-12-21T04:10:27.267Z,39.34
2017-12-21T04:11:27.242Z,39.62
2017-12-21T04:12:27.193Z,39.72
2017-12-21T04:13:27.153Z,39.91
2017-12-21T04:14:27.118Z,39.81
2017-12-21T04:15:27.082Z,40.20
2017-12-21T04:16:27.042Z,40.29
2017-12-21T04:17:27.095Z,40.77
2017-12-21T04:18:26.971Z,40.95
2017-12-21T04:19:26.931Z,40.29
2017-12-21T04:20:26.893Z,41.05
2017-12-21T04:21:26.858Z,40.95
2017-12-21T04:22:26.818Z,40.86
2017-12-21T04:23:26.792Z,41.05
2017-12-21T04:24:26.745Z,41.24
2017-12-21T04:25:26.708Z,41.72
2017-12-21T04:26:26.669Z,41.81
2017-12-21T04:27:26.650Z,41.62
2017-12-21T04:28:26.593Z,41.72
2017-12-21T04:29:26.590Z,41.62
2017-12-21T04:30:26.519Z,42.47
2017-12-21T04:31:26.481Z,42.38
2017-12-21T04:32:26.445Z,42.76
2017-12-21T04:33:26.407Z,42.95
2017-12-21T04:34:26.372Z,43.14
2017-12-21T04:35:26.335Z,43.24
2017-12-21T04:36:26.308Z,43.33
2017-12-21T04:37:26.262Z,43.33
2017-12-21T04:38:26.691Z,43.52
2017-12-21T04:39:26.184Z,43.62
2017-12-21T04:40:26.153Z,43.43
2017-12-21T04:41:26.121Z,42.38
2017-12-21T04:42:26.071Z,42.57
2017-12-21T04:43:26.035Z,42.47
2017-12-21T04:44:25.997Z,42.38
2017-12-21T04:45:25.959Z,42.86
2017-12-21T04:46:25.921Z,43.90
2017-12-21T04:47:25.895Z,43.90
2017-12-21T04:48:25.847Z,43.80
2017-12-21T04:49:25.811Z,44.19
2017-12-21T04:50:26.137Z,44.38
2017-12-21T04:51:25.738Z,44.28
2017-12-21T04:52:25.699Z,44.38
2017-12-21T04:53:25.668Z,44.28
2017-12-21T04:54:25.626Z,43.90
2017-12-21T04:55:25.587Z,43.90
2017-12-21T04:56:25.551Z,44.09
2017-12-21T04:57:25.513Z,44.09
2017-12-21T04:58:25.475Z,44.19
2017-12-21T04:59:25.447Z,44.67
2017-12-21T05:00:25.403Z,44.76
2017-12-21T05:01:25.363Z,45.14
2017-12-21T05:02:25.324Z,45.14
2017-12-21T05:03:25.291Z,45.04
2017-12-21T05:04:25.255Z,45.14
2017-12-21T05:05:25.218Z,45.23
2017-12-21T05:06:25.177Z,45.14
2017-12-21T05:07:25.139Z,45.23
2017-12-21T05:08:25.106Z,45.14
2017-12-21T05:09:25.063Z,44.67
2017-12-21T05:10:25.028Z,44.67
2017-12-21T05:11:25.019Z,45.04
2017-12-21T05:12:24.954Z,45.23
2017-12-21T05:13:24.915Z,45.23
2017-12-21T05:14:24.876Z,45.42
2017-12-21T05:15:24.841Z,45.42
2017-12-21T05:16:24.802Z,45.42
2017-12-21T05:17:24.777Z,45.52
2017-12-21T05:18:24.729Z,46.19
2017-12-21T05:19:24.691Z,46.19
2017-12-21T05:20:25.093Z,46.94
2017-12-21T05:21:24.619Z,46.66
2017-12-21T05:22:24.587Z,46.94
2017-12-21T05:23:24.541Z,46.56
2017-12-21T05:24:24.505Z,46.66
2017-12-21T05:25:24.468Z,46.37
2017-12-21T05:26:24.432Z,46.37
2017-12-21T05:27:24.397Z,46.28
2017-12-21T05:28:24.367Z,46.97
2017-12-21T05:29:24.319Z,47.04
2017-12-21T05:30:24.281Z,47.04
2017-12-21T05:31:24.249Z,46.94
2017-12-21T05:32:24.208Z,47.34
2017-12-21T05:33:24.170Z,47.42
2017-12-21T05:34:24.134Z,47.61
2017-12-21T05:35:24.128Z,48.01
2017-12-21T05:36:24.059Z,48.21
2017-12-21T05:37:24.022Z,48.87
2017-12-21T05:38:23.986Z,48.87
2017-12-21T05:39:23.948Z,49.35
2017-12-21T05:40:23.910Z,49.73
2017-12-21T05:41:23.880Z,50.39
2017-12-21T05:42:23.842Z,50.10
2017-12-21T05:43:23.805Z,49.82
2017-12-21T05:44:23.762Z,49.89
2017-12-21T05:45:23.727Z,49.79
2017-12-21T05:46:23.688Z,49.82
2017-12-21T05:47:23.653Z,49.79
2017-12-21T05:48:23.621Z,49.82
2017-12-21T05:49:23.579Z,49.44
2017-12-21T05:50:23.546Z,49.60
2017-12-21T05:51:23.504Z,49.60
2017-12-21T05:52:23.466Z,49.15
2017-12-21T05:53:23.429Z,49.25
2017-12-21T05:54:23.397Z,49.22
2017-12-21T05:55:23.356Z,49.79
2017-12-21T05:56:23.318Z,49.91
2017-12-21T05:57:23.281Z,49.82
2017-12-21T05:58:23.252Z,50.08
2017-12-21T05:59:23.206Z,50.27
2017-12-21T06:00:23.174Z,50.08
2017-12-21T06:01:23.214Z,50.29
2017-12-21T06:02:23.111Z,50.18
2017-12-21T06:03:23.059Z,49.98
2017-12-21T06:04:23.022Z,49.89
2017-12-21T06:05:22.999Z,50.27
2017-12-21T06:06:22.948Z,49.89
2017-12-21T06:07:22.910Z,49.98
2017-12-21T06:08:22.877Z,49.98
2017-12-21T06:09:23.106Z,50.08
2017-12-21T06:10:22.816Z,49.60
2017-12-21T06:11:22.764Z,49.51
2017-12-21T06:12:22.725Z,49.89
2017-12-21T06:13:22.691Z,49.51
2017-12-21T06:14:22.659Z,48.37
2017-12-21T06:15:22.612Z,48.56
2017-12-21T06:16:22.575Z,48.94
2017-12-21T06:17:22.551Z,48.75
2017-12-21T06:18:22.501Z,47.99
2017-12-21T06:19:22.464Z,47.61
2017-12-21T06:20:22.425Z,47.52
2017-12-21T06:21:22.389Z,47.89
2017-12-21T06:22:22.689Z,48.08
2017-12-21T06:23:22.324Z,48.08
2017-12-21T06:24:22.277Z,48.18
2017-12-21T06:25:22.240Z,48.08
2017-12-21T06:26:22.204Z,47.89
2017-12-21T06:27:22.204Z,47.71
2017-12-21T06:28:22.128Z,48.08
2017-12-21T06:29:22.118Z,47.61
2017-12-21T06:30:22.052Z,47.42
2017-12-21T06:31:22.015Z,47.61
2017-12-21T06:32:21.991Z,47.13
2017-12-21T06:33:21.947Z,47.13
2017-12-21T06:34:21.904Z,47.23
2017-12-21T06:35:21.878Z,47.13
2017-12-21T06:36:21.831Z,46.94
2017-12-21T06:37:21.791Z,46.94
2017-12-21T06:38:21.754Z,46.75
2017-12-21T06:39:21.751Z,46.85
2017-12-21T06:40:21.680Z,46.85
2017-12-21T06:41:21.642Z,46.75
2017-12-21T06:42:21.649Z,46.47
2017-12-21T06:43:21.570Z,46.47
2017-12-21T06:44:21.529Z,46.75
2017-12-21T06:45:21.491Z,46.85
2017-12-21T06:46:21.455Z,46.75
2017-12-21T06:47:21.417Z,46.37
2017-12-21T06:48:21.391Z,46.47
2017-12-21T06:49:21.342Z,46.28
2017-12-21T06:50:21.306Z,46.19
2017-12-21T06:51:21.271Z,46.56
2017-12-21T06:52:21.237Z,46.56
2017-12-21T06:53:21.197Z,46.00
2017-12-21T06:54:21.165Z,46.00
2017-12-21T06:55:21.118Z,45.52
2017-12-21T06:56:21.079Z,45.33
2017-12-21T06:57:21.043Z,45.04
2017-12-21T06:58:21.005Z,44.28
2017-12-21T06:59:20.968Z,43.43
2017-12-21T07:00:20.929Z,43.52
2017-12-21T07:01:20.938Z,42.86
2017-12-21T07:02:20.884Z,42.29
2017-12-21T07:03:20.820Z,42.38
2017-12-21T07:04:20.782Z,41.91
2017-12-21T07:05:20.743Z,41.62
2017-12-21T07:06:20.707Z,41.34
2017-12-21T07:07:20.684Z,41.24
2017-12-21T07:08:20.634Z,40.58
2017-12-21T07:09:20.592Z,40.86
2017-12-21T07:10:20.556Z,40.95
2017-12-21T07:11:20.518Z,40.95
2017-12-21T07:12:20.528Z,40.67
2017-12-21T07:13:20.697Z,40.48
2017-12-21T07:14:20.407Z,40.39
2017-12-21T07:15:20.368Z,40.20
2017-12-21T07:16:20.329Z,40.20
2017-12-21T07:17:20.294Z,39.72
2017-12-21T07:18:20.264Z,40.10
2017-12-21T07:19:20.234Z,40.01
2017-12-21T07:20:20.182Z,40.10
2017-12-21T07:21:20.141Z,39.72
2017-12-21T07:22:20.107Z,39.72
2017-12-21T07:23:20.073Z,39.72
2017-12-21T07:24:20.031Z,39.62
2017-12-21T07:25:20.000Z,39.72
2017-12-21T07:26:19.957Z,39.81
2017-12-21T07:27:19.919Z,39.43
2017-12-21T07:28:19.881Z,39.81
2017-12-21T07:29:19.842Z,39.62
2017-12-21T07:30:19.806Z,39.72
2017-12-21T07:31:19.780Z,39.81
2017-12-21T07:32:19.730Z,39.72
2017-12-21T07:33:19.697Z,39.81
2017-12-21T07:34:19.656Z,39.43
2017-12-21T07:35:19.620Z,39.81
2017-12-21T07:36:19.582Z,39.34
2017-12-21T07:37:19.917Z,39.43
2017-12-21T07:38:19.510Z,39.53
2017-12-21T07:39:19.470Z,40.01
2017-12-21T07:40:19.433Z,39.53
2017-12-21T07:41:19.396Z,39.62
2017-12-21T07:42:19.357Z,39.62
2017-12-21T07:43:19.327Z,39.53
2017-12-21T07:44:19.281Z,39.81
2017-12-21T07:45:19.244Z,39.81
2017-12-21T07:46:19.208Z,39.91
2017-12-21T07:47:19.172Z,39.81
2017-12-21T07:48:19.133Z,39.43
2017-12-21T07:49:19.133Z,39.43
2017-12-21T07:50:19.059Z,39.62
2017-12-21T07:51:19.020Z,39.53
2017-12-21T07:52:19.025Z,39.91
2017-12-21T07:53:18.943Z,39.62
2017-12-21T07:54:18.909Z,39.81
2017-12-21T07:55:18.879Z,39.34
2017-12-21T07:56:18.839Z,39.81
2017-12-21T07:57:18.795Z,40.29
2017-12-21T07:58:18.758Z,39.72
2017-12-21T07:59:18.720Z,40.29
2017-12-21T08:00:18.884Z,39.43
2017-12-21T08:01:18.656Z,39.62
2017-12-21T08:02:18.610Z,39.91
2017-12-21T08:03:18.571Z,40.01
2017-12-21T08:04:18.534Z,39.91
2017-12-21T08:05:18.495Z,40.39
2017-12-21T08:06:18.458Z,40.39
2017-12-21T08:07:18.427Z,40.59
2017-12-21T08:08:18.384Z,40.77
2017-12-21T08:09:18.346Z,40.67
2017-12-21T08:10:18.308Z,40.95
2017-12-21T08:11:18.272Z,40.39
2017-12-21T08:12:18.234Z,40.48
2017-12-21T08:13:18.209Z,40.79
2017-12-21T08:14:18.159Z,41.07
2017-12-21T08:15:18.122Z,40.58
2017-12-21T08:16:18.082Z,40.88
2017-12-21T08:17:18.046Z,40.88
2017-12-21T08:18:18.009Z,40.67
2017-12-21T08:19:17.995Z,40.88
2017-12-21T08:20:17.934Z,40.88
2017-12-21T08:21:17.897Z,40.59
2017-12-21T08:22:17.860Z,40.79
2017-12-21T08:23:17.823Z,40.79
2017-12-21T08:24:17.784Z,40.98
2017-12-21T08:25:17.753Z,40.67
2017-12-21T08:26:17.711Z,40.98
2017-12-21T08:27:17.675Z,40.50
2017-12-21T08:28:17.636Z,40.22
2017-12-21T08:29:17.596Z,39.65
2017-12-21T08:30:17.561Z,39.45
2017-12-21T08:31:17.527Z,39.55
2017-12-21T08:32:17.484Z,39.74
2017-12-21T08:33:17.448Z,39.43
2017-12-21T08:34:17.411Z,39.36
2017-12-21T08:35:17.376Z,39.17
2017-12-21T08:36:17.335Z,38.60
2017-12-21T08:37:17.302Z,38.79
2017-12-21T08:38:17.258Z,38.41
2017-12-21T08:39:17.224Z,38.41
2017-12-21T08:40:17.184Z,38.60
2017-12-21T08:41:17.146Z,38.79
2017-12-21T08:42:17.115Z,38.79
2017-12-21T08:43:17.073Z,38.98
2017-12-21T08:44:17.041Z,38.98
2017-12-21T08:45:16.996Z,38.89
2017-12-21T08:46:16.960Z,38.98
2017-12-21T08:47:16.920Z,38.79
2017-12-21T08:48:16.893Z,38.89
2017-12-21T08:49:16.846Z,38.79
2017-12-21T08:50:16.808Z,38.98
2017-12-21T08:51:16.771Z,38.98
2017-12-21T08:52:17.334Z,38.60
2017-12-21T08:53:16.697Z,38.98
2017-12-21T08:54:16.665Z,38.60
2017-12-21T08:55:16.623Z,38.89
2017-12-21T08:56:16.583Z,38.98
2017-12-21T08:57:16.549Z,38.60
2017-12-21T08:58:16.512Z,38.89
2017-12-21T08:59:16.478Z,38.41
2017-12-21T09:00:16.436Z,38.51
2017-12-21T09:01:16.405Z,38.70
2017-12-21T09:02:16.358Z,38.79
2017-12-21T09:03:16.321Z,38.51
2017-12-21T09:04:16.284Z,38.79
2017-12-21T09:05:16.245Z,38.41
2017-12-21T09:06:16.209Z,38.51
2017-12-21T09:07:16.181Z,38.41
2017-12-21T09:08:16.135Z,38.41
2017-12-21T09:09:16.098Z,38.51
2017-12-21T09:10:16.060Z,38.41
2017-12-21T09:11:16.023Z,38.51
2017-12-21T09:12:15.984Z,38.31
2017-12-21T09:13:15.959Z,38.12
2017-12-21T09:14:15.910Z,38.41
2017-12-21T09:15:15.872Z,38.51
2017-12-21T09:16:15.849Z,38.31
2017-12-21T09:17:15.796Z,38.41
2017-12-21T09:18:15.761Z,38.70
2017-12-21T09:19:15.734Z,38.51
2017-12-21T09:20:15.686Z,38.41
2017-12-21T09:21:15.651Z,38.51
2017-12-21T09:22:15.612Z,38.12
2017-12-21T09:23:15.573Z,38.03
2017-12-21T09:24:15.535Z,38.22
2017-12-21T09:25:15.524Z,37.93
2017-12-21T09:26:15.463Z,37.74
2017-12-21T09:27:15.425Z,37.46
2017-12-21T09:28:15.387Z,37.74
2017-12-21T09:29:15.351Z,37.65
2017-12-21T09:30:15.500Z,37.84
2017-12-21T09:31:15.288Z,37.74
2017-12-21T09:32:15.242Z,37.65
2017-12-21T09:33:15.202Z,37.74
2017-12-21T09:34:15.165Z,37.74
2017-12-21T09:35:15.130Z,38.03
2017-12-21T09:36:15.088Z,37.84
2017-12-21T09:37:15.051Z,37.74
2017-12-21T09:38:15.030Z,37.74
2017-12-21T09:39:14.979Z,37.55
2017-12-21T09:40:14.940Z,38.41
2017-12-21T09:41:14.902Z,38.22
2017-12-21T09:42:14.866Z,38.51
2017-12-21T09:43:14.828Z,38.60
2017-12-21T09:44:14.820Z,38.60
2017-12-21T09:45:14.756Z,38.51
2017-12-21T09:46:14.719Z,38.70
2017-12-21T09:47:14.680Z,38.51
2017-12-21T09:48:14.642Z,38.89
2017-12-21T09:49:14.605Z,38.70
2017-12-21T09:50:14.570Z,39.17
2017-12-21T09:51:14.540Z,39.07
2017-12-21T09:52:14.492Z,38.70
2017-12-21T09:53:14.457Z,39.36
2017-12-21T09:54:14.424Z,39.09
2017-12-21T09:55:14.395Z,39.48
2017-12-21T09:56:14.346Z,38.53
2017-12-21T09:57:14.349Z,38.71
2017-12-21T09:58:14.321Z,38.53
2017-12-21T09:59:14.241Z,39.76
2017-12-21T10:00:14.199Z,41.09
2017-12-21T10:01:14.161Z,40.71
2017-12-21T10:02:14.131Z,40.81
2017-12-21T10:03:14.091Z,41.28
2017-12-21T10:04:14.067Z,41.09
2017-12-21T10:05:14.017Z,41.28
2017-12-21T10:06:13.978Z,41.38
2017-12-21T10:07:13.942Z,41.38
2017-12-21T10:08:13.905Z,42.52
2017-12-21T10:09:13.870Z,44.13
2017-12-21T10:10:13.844Z,44.04
2017-12-21T10:11:13.795Z,42.90
2017-12-21T10:12:13.761Z,43.66
2017-12-21T10:13:13.721Z,45.37
2017-12-21T10:14:13.685Z,44.90
2017-12-21T10:15:13.650Z,45.66
2017-12-21T10:16:13.640Z,46.42
2017-12-21T10:17:13.575Z,45.95
2017-12-21T10:18:13.541Z,46.70
2017-12-21T10:19:13.505Z,47.66
2017-12-21T10:20:13.468Z,48.03
2017-12-21T10:21:13.430Z,47.37
2017-12-21T10:22:13.400Z,47.47
2017-12-21T10:23:13.364Z,46.99
2017-12-21T10:24:13.321Z,47.56
2017-12-21T10:25:13.284Z,47.09
2017-12-21T10:26:13.296Z,46.99
2017-12-21T10:27:13.215Z,47.28
2017-12-21T10:28:13.179Z,47.18
2017-12-21T10:29:13.139Z,47.56
2017-12-21T10:30:13.132Z,47.28
2017-12-21T10:31:13.067Z,47.37
2017-12-21T10:32:13.030Z,46.80
2017-12-21T10:33:13.004Z,47.28
2017-12-21T10:34:12.957Z,46.51
2017-12-21T10:35:12.926Z,46.51
2017-12-21T10:36:12.883Z,47.28
2017-12-21T10:37:12.847Z,47.47
2017-12-21T10:38:12.810Z,47.94
2017-12-21T10:39:12.777Z,47.47
2017-12-21T10:40:12.742Z,47.28
2017-12-21T10:41:12.706Z,47.85
2017-12-21T10:42:12.664Z,47.37
2017-12-21T10:43:12.628Z,48.80
2017-12-21T10:44:12.601Z,48.71
2017-12-21T10:45:12.553Z,48.32
2017-12-21T10:46:12.529Z,48.03
2017-12-21T10:47:12.482Z,48.32
2017-12-21T10:48:12.448Z,48.80
2017-12-21T10:49:12.409Z,48.61
2017-12-21T10:50:12.372Z,48.51
2017-12-21T10:51:12.336Z,49.85
2017-12-21T10:52:12.349Z,50.32
2017-12-21T10:53:12.261Z,49.65
2017-12-21T10:54:12.227Z,48.80
2017-12-21T10:55:12.189Z,48.32
2017-12-21T10:56:12.154Z,49.75
2017-12-21T10:57:12.118Z,49.94
2017-12-21T10:58:12.084Z,49.56
2017-12-21T10:59:12.056Z,50.23
2017-12-21T11:00:12.010Z,49.85
2017-12-21T11:01:11.970Z,50.60
2017-12-21T11:02:11.932Z,51.46
2017-12-21T11:03:11.898Z,51.75
2017-12-21T11:04:11.864Z,51.27
2017-12-21T11:05:11.827Z,50.04
2017-12-21T11:06:11.829Z,51.27
2017-12-21T11:07:11.752Z,50.79
2017-12-21T11:08:11.742Z,51.18
2017-12-21T11:09:11.678Z,50.23
2017-12-21T11:10:11.642Z,50.89
2017-12-21T11:11:11.611Z,50.32
2017-12-21T11:12:11.583Z,50.42
2017-12-21T11:13:11.532Z,49.46
2017-12-21T11:14:11.495Z,49.85
2017-12-21T11:15:11.462Z,49.75
2017-12-21T11:16:11.432Z,49.75
2017-12-21T11:17:11.385Z,49.56
2017-12-21T11:18:11.422Z,48.90
2017-12-21T11:19:11.316Z,48.80
2017-12-21T11:20:11.276Z,49.37
2017-12-21T11:21:11.239Z,49.27
2017-12-21T11:22:11.205Z,48.23
2017-12-21T11:23:11.166Z,48.42
2017-12-21T11:24:11.146Z,48.13
2017-12-21T11:25:11.101Z,47.66
2017-12-21T11:26:11.075Z,47.94
2017-12-21T11:27:11.033Z,48.13
2017-12-21T11:28:10.986Z,48.03
2017-12-21T11:29:10.949Z,47.66
2017-12-21T11:30:10.911Z,48.23
2017-12-21T11:31:10.878Z,47.66
2017-12-21T11:32:10.844Z,47.18
2017-12-21T11:33:10.800Z,46.61
2017-12-21T11:34:10.765Z,45.66
2017-12-21T11:35:10.730Z,45.00
2017-12-21T11:36:10.690Z,45.18
2017-12-21T11:37:10.655Z,44.13
2017-12-21T11:38:10.628Z,43.95
2017-12-21T11:39:10.584Z,43.85
2017-12-21T11:40:10.545Z,43.85
2017-12-21T11:41:10.510Z,43.47
2017-12-21T11:42:10.472Z,43.09
2017-12-21T11:43:10.436Z,42.99
2017-12-21T11:44:10.409Z,42.52
2017-12-21T11:45:10.362Z,42.43
2017-12-21T11:46:10.325Z,41.47
2017-12-21T11:47:10.290Z,41.09
2017-12-21T11:48:10.273Z,40.52
2017-12-21T11:49:10.446Z,40.05
2017-12-21T11:50:10.920Z,39.48
2017-12-21T11:51:10.148Z,39.57
2017-12-21T11:52:10.107Z,39.00
2017-12-21T11:53:10.070Z,38.90
2017-12-21T11:54:10.032Z,38.43
2017-12-21T11:55:09.996Z,38.81
2017-12-21T11:56:09.958Z,38.71
2017-12-21T11:57:09.927Z,38.43
2017-12-21T11:58:09.886Z,38.34
2017-12-21T11:59:09.850Z,38.53
2017-12-21T12:00:09.812Z,38.14
2017-12-21T12:01:10.047Z,37.48
2017-12-21T12:02:09.740Z,37.67
2017-12-21T12:03:09.714Z,37.48
2017-12-21T12:04:09.666Z,37.57
2017-12-21T12:05:09.628Z,37.67
2017-12-21T12:06:09.592Z,37.76
2017-12-21T12:07:09.571Z,37.76
2017-12-21T12:08:09.518Z,37.19
2017-12-21T12:09:09.492Z,37.67
2017-12-21T12:10:10.288Z,37.38
2017-12-21T12:11:09.411Z,37.38
2017-12-21T12:12:09.372Z,37.29
2017-12-21T12:13:09.334Z,37.38
2017-12-21T12:14:09.304Z,37.48
2017-12-21T12:15:09.262Z,37.57
2017-12-21T12:16:09.240Z,37.19
2017-12-21T12:17:09.188Z,37.29
2017-12-21T12:18:09.153Z,37.19
2017-12-21T12:19:09.296Z,37.29
2017-12-21T12:20:09.080Z,37.38
2017-12-21T12:21:09.040Z,37.57
2017-12-21T12:22:09.022Z,37.38
2017-12-21T12:23:08.968Z,37.48
2017-12-21T12:24:08.931Z,37.67
2017-12-21T12:25:08.895Z,37.38
2017-12-21T12:26:08.858Z,37.29
2017-12-21T12:27:08.820Z,37.57
2017-12-21T12:28:08.800Z,37.38
2017-12-21T12:29:08.750Z,37.38
2017-12-21T12:30:08.710Z,37.67
2017-12-21T12:31:08.677Z,37.95
2017-12-21T12:32:08.645Z,37.86
2017-12-21T12:33:08.602Z,37.86
2017-12-21T12:34:08.587Z,38.14
2017-12-21T12:35:08.535Z,37.57
2017-12-21T12:36:09.219Z,37.67
2017-12-21T12:37:08.459Z,37.76
2017-12-21T12:38:08.438Z,37.76
2017-12-21T12:39:08.382Z,37.57
2017-12-21T12:40:08.360Z,37.57
2017-12-21T12:41:08.306Z,37.57
2017-12-21T12:42:08.276Z,37.67
2017-12-21T12:43:08.235Z,37.57
2017-12-21T12:44:08.201Z,37.76
2017-12-21T12:45:08.160Z,37.67
2017-12-21T12:46:08.130Z,37.57
2017-12-21T12:47:08.089Z,37.76
2017-12-21T12:48:08.048Z,38.05
2017-12-21T12:49:08.013Z,37.86
2017-12-21T12:50:07.979Z,37.76
2017-12-21T12:51:07.938Z,37.86
2017-12-21T12:52:07.902Z,37.38